Fowey, United Kingdom
Current Conditions -  °F | °C
As of 9:20 PM on Friday 21 Nov 2014 (Local Time) from EGHQ Reporting Station
Drizzle Drizzle  
Wind Chill: 55°   Ceiling: 200
Heat Index: 55°   Visibility: 4mi
Dew Point: 54°   Wind: 16mph
Humidity: 94%   Direction: 170°S
Pressure: 29.77"   Gusts: NA
Location:  50.34°N, 4.64°W
Report Text: EGHQ 212120Z 17014KT 6000 -DZ BKN002 13/12 Q1008
Loading
Personal Weather Stations






























Interactive Weather Map New forecast layout! Learn more

10-Day Weather Forecast

Advertisements
Track Severe Weather on mobile